createdAt,value
2018-09-14T00:00:49.428Z,53.70
2018-09-14T00:03:18.021Z,53.90
2018-09-14T00:05:46.570Z,53.70
2018-09-14T00:08:15.196Z,54.30
2018-09-14T00:10:43.783Z,53.60
2018-09-14T00:13:12.432Z,53.60
2018-09-14T00:15:40.999Z,53.40
2018-09-14T00:18:09.520Z,53.30
2018-09-14T00:20:38.134Z,53.40
2018-09-14T00:23:06.821Z,53.40
2018-09-14T00:25:35.424Z,53.20
2018-09-14T00:28:04.029Z,53.40
2018-09-14T00:30:32.604Z,53.20
2018-09-14T00:33:01.217Z,53.20
2018-09-14T00:35:29.801Z,52.90
2018-09-14T00:37:59.010Z,53.20
2018-09-14T00:40:27.599Z,53.20
2018-09-14T00:42:56.369Z,53.00
2018-09-14T00:45:24.980Z,53.20
2018-09-14T00:47:53.564Z,53.00
2018-09-14T00:50:22.159Z,53.30
2018-09-14T00:52:50.743Z,53.10
2018-09-14T00:55:19.281Z,54.00
2018-09-14T00:57:47.851Z,53.30
2018-09-14T01:00:16.565Z,53.70
2018-09-14T01:02:45.251Z,53.60
2018-09-14T01:05:13.824Z,53.60
2018-09-14T01:07:42.536Z,53.50
2018-09-14T01:10:11.144Z,53.80
2018-09-14T01:12:39.863Z,53.70
2018-09-14T01:15:08.536Z,53.50
2018-09-14T01:17:37.123Z,53.70
2018-09-14T01:20:05.987Z,53.80
2018-09-14T01:22:35.165Z,53.90
2018-09-14T01:25:04.427Z,53.90
2018-09-14T01:27:33.033Z,54.00
2018-09-14T01:30:01.651Z,54.20
2018-09-14T01:32:30.185Z,54.20
2018-09-14T01:34:58.736Z,54.40
2018-09-14T01:37:27.532Z,54.10
2018-09-14T01:39:56.223Z,54.20
2018-09-14T01:42:25.036Z,53.90
2018-09-14T01:44:53.753Z,54.10
2018-09-14T01:47:23.288Z,54.10
2018-09-14T01:49:51.860Z,54.20
2018-09-14T01:52:20.488Z,54.20
2018-09-14T01:54:49.044Z,54.30
2018-09-14T01:57:17.768Z,54.30
2018-09-14T01:59:46.355Z,54.20
2018-09-14T02:02:14.983Z,54.30
2018-09-14T02:04:43.531Z,54.30
2018-09-14T02:07:12.127Z,53.90
2018-09-14T02:09:40.726Z,53.90
2018-09-14T02:12:09.324Z,54.30
2018-09-14T02:14:37.854Z,54.20
2018-09-14T02:17:06.385Z,54.00
2018-09-14T02:19:34.955Z,54.00
2018-09-14T02:22:03.521Z,54.10
2018-09-14T02:24:32.146Z,54.10
2018-09-14T02:27:00.727Z,53.90
2018-09-14T02:29:29.308Z,54.00
2018-09-14T02:31:57.838Z,54.00
2018-09-14T02:34:26.404Z,54.10
2018-09-14T02:36:55.078Z,54.10
2018-09-14T02:39:23.760Z,54.00
2018-09-14T02:41:52.347Z,54.30
2018-09-14T02:44:21.625Z,54.20
2018-09-14T02:46:50.192Z,54.10
2018-09-14T02:49:18.847Z,54.10
2018-09-14T02:54:28.996Z,54.10
2018-09-14T02:56:58.700Z,54.00
2018-09-14T02:59:27.977Z,54.20
2018-09-14T03:01:56.521Z,54.40
2018-09-14T03:04:25.112Z,54.30
2018-09-14T03:06:53.720Z,54.00
2018-09-14T03:09:28.546Z,54.20
2018-09-14T03:11:57.068Z,53.90
2018-09-14T03:14:25.688Z,53.80
2018-09-14T03:16:54.757Z,53.80
2018-09-14T03:19:23.423Z,53.80
2018-09-14T03:21:52.089Z,53.70
2018-09-14T03:24:21.039Z,53.50
2018-09-14T03:26:49.721Z,53.90
2018-09-14T03:29:18.260Z,54.20
2018-09-14T03:31:46.948Z,54.20
2018-09-14T03:34:15.613Z,54.00
2018-09-14T03:36:44.302Z,54.30
2018-09-14T03:39:12.999Z,54.00
2018-09-14T03:41:41.500Z,54.20
2018-09-14T03:44:10.096Z,54.30
2018-09-14T03:46:38.628Z,54.60
2018-09-14T03:49:07.176Z,54.20
2018-09-14T03:51:35.728Z,54.30
2018-09-14T03:54:04.361Z,54.30
2018-09-14T03:56:32.911Z,54.20
2018-09-14T03:59:01.521Z,54.10
2018-09-14T04:01:30.038Z,54.00
2018-09-14T04:03:58.751Z,54.30
2018-09-14T04:06:27.314Z,54.30
2018-09-14T04:08:55.951Z,54.30
2018-09-14T04:11:24.618Z,54.90
2018-09-14T04:13:53.189Z,54.60
2018-09-14T04:16:21.823Z,54.30
2018-09-14T04:18:54.803Z,54.40
2018-09-14T04:21:23.472Z,54.70
2018-09-14T04:23:52.049Z,54.30
2018-09-14T04:26:20.707Z,54.60
2018-09-14T04:28:49.356Z,54.80
2018-09-14T04:31:18.062Z,55.10
2018-09-14T04:33:46.750Z,54.90
2018-09-14T04:36:15.611Z,54.70
2018-09-14T04:38:44.262Z,55.10
2018-09-14T04:41:12.764Z,55.00
2018-09-14T04:43:41.491Z,54.90
2018-09-14T04:46:10.278Z,55.00
2018-09-14T04:48:39.058Z,54.80
2018-09-14T04:51:07.659Z,54.80
2018-09-14T04:53:36.546Z,54.80
2018-09-14T04:56:05.563Z,55.10
2018-09-14T04:58:34.255Z,54.80
2018-09-14T05:01:03.008Z,55.00
2018-09-14T05:03:31.861Z,54.90
2018-09-14T05:06:00.450Z,54.70
2018-09-14T05:08:29.012Z,54.70
2018-09-14T05:10:57.798Z,55.10
2018-09-14T05:13:26.404Z,55.30
2018-09-14T05:15:55.093Z,55.30
2018-09-14T05:18:24.082Z,55.20
2018-09-14T05:20:52.756Z,55.30
2018-09-14T05:23:21.360Z,55.20
2018-09-14T05:25:50.067Z,55.40
2018-09-14T05:28:18.718Z,55.20
2018-09-14T05:30:47.448Z,55.40
2018-09-14T05:33:16.745Z,55.20
2018-09-14T05:35:45.410Z,55.30
2018-09-14T05:38:14.110Z,55.20
2018-09-14T05:40:42.716Z,55.20
2018-09-14T05:43:11.292Z,55.30
2018-09-14T05:45:39.998Z,55.20
2018-09-14T05:48:08.653Z,55.10
2018-09-14T05:50:37.264Z,55.20
2018-09-14T05:53:05.890Z,55.20
2018-09-14T05:55:34.469Z,55.30
2018-09-14T05:58:03.293Z,55.20
2018-09-14T06:00:31.920Z,55.30
2018-09-14T06:03:01.013Z,55.30
2018-09-14T06:05:29.600Z,55.30
2018-09-14T06:07:58.147Z,55.50
2018-09-14T06:10:27.617Z,55.40
2018-09-14T06:12:56.389Z,55.80
2018-09-14T06:15:25.014Z,55.20
2018-09-14T06:17:53.748Z,55.60
2018-09-14T06:20:22.356Z,55.20
2018-09-14T06:22:50.942Z,55.30
2018-09-14T06:25:19.512Z,55.60
2018-09-14T06:27:48.816Z,56.30
2018-09-14T06:30:18.091Z,55.80
2018-09-14T06:32:46.852Z,55.70
2018-09-14T06:35:15.693Z,56.10
2018-09-14T06:37:44.356Z,56.30
2018-09-14T06:40:13.064Z,56.20
2018-09-14T06:42:41.760Z,56.20
2018-09-14T06:45:10.348Z,56.40
2018-09-14T06:47:38.895Z,56.70
2018-09-14T06:50:07.529Z,56.40
2018-09-14T06:52:36.093Z,56.70
2018-09-14T06:55:04.743Z,56.80
2018-09-14T06:57:33.294Z,56.80
2018-09-14T07:00:01.993Z,57.40
2018-09-14T07:02:30.688Z,57.20
2018-09-14T07:04:59.442Z,56.90
2018-09-14T07:07:28.675Z,57.20
2018-09-14T07:09:57.355Z,57.30
2018-09-14T07:12:25.948Z,57.60
2018-09-14T07:14:54.581Z,57.70
2018-09-14T07:17:23.456Z,57.50
2018-09-14T07:19:52.043Z,58.00
2018-09-14T07:22:21.400Z,57.40
2018-09-14T07:24:50.073Z,57.50
2018-09-14T07:27:18.623Z,57.80
2018-09-14T07:29:47.216Z,57.60
2018-09-14T07:32:15.982Z,57.70
2018-09-14T07:34:44.642Z,57.50
2018-09-14T07:37:13.313Z,57.60
2018-09-14T07:39:41.915Z,57.60
2018-09-14T07:42:10.692Z,57.80
2018-09-14T07:44:39.325Z,57.90
2018-09-14T07:47:07.949Z,58.10
2018-09-14T07:49:36.633Z,57.90
2018-09-14T07:52:05.445Z,58.10
2018-09-14T07:54:34.037Z,58.10
2018-09-14T07:57:02.832Z,58.30
2018-09-14T07:59:31.396Z,58.10
2018-09-14T08:02:00.084Z,58.30
2018-09-14T08:04:28.670Z,58.30
2018-09-14T08:06:57.401Z,58.40
2018-09-14T08:09:26.642Z,58.50
2018-09-14T08:11:55.299Z,58.30
2018-09-14T08:14:23.948Z,58.80
2018-09-14T08:16:53.757Z,58.60
2018-09-14T08:19:22.486Z,58.40
2018-09-14T08:21:51.170Z,58.30
2018-09-14T08:24:19.628Z,58.10
2018-09-14T08:26:48.256Z,58.20
2018-09-14T08:29:16.803Z,57.90
2018-09-14T08:31:45.446Z,58.00
2018-09-14T08:34:14.058Z,57.50
2018-09-14T08:36:42.681Z,57.70
2018-09-14T08:39:12.685Z,57.50
2018-09-14T08:41:41.340Z,57.60
2018-09-14T08:44:10.077Z,57.50
2018-09-14T08:46:38.808Z,57.50
2018-09-14T08:49:07.360Z,57.30
2018-09-14T08:51:35.989Z,57.30
2018-09-14T08:54:04.567Z,57.50
2018-09-14T08:56:33.146Z,57.20
2018-09-14T08:59:01.904Z,57.00
2018-09-14T09:01:30.474Z,56.80
2018-09-14T09:03:59.327Z,56.70
2018-09-14T09:06:28.787Z,56.10
2018-09-14T09:08:57.584Z,56.20
2018-09-14T09:11:26.849Z,55.50
2018-09-14T09:13:55.474Z,55.60
2018-09-14T09:16:24.383Z,55.00
2018-09-14T09:18:53.574Z,54.80
2018-09-14T09:21:22.766Z,54.30
2018-09-14T09:23:54.280Z,53.20
2018-09-14T09:26:24.297Z,52.80
2018-09-14T09:28:53.242Z,52.00
2018-09-14T09:31:22.576Z,51.00
2018-09-14T09:33:51.700Z,50.80
2018-09-14T09:36:20.827Z,50.80
2018-09-14T09:38:50.677Z,50.60
2018-09-14T09:41:19.567Z,50.30
2018-09-14T09:43:48.232Z,50.10
2018-09-14T09:46:16.941Z,50.10
2018-09-14T09:48:46.085Z,50.30
2018-09-14T09:51:14.936Z,50.80
2018-09-14T09:53:44.401Z,50.80
2018-09-14T09:56:13.774Z,50.50
2018-09-14T09:58:42.887Z,49.80
2018-09-14T10:01:17.122Z,49.10
2018-09-14T10:03:52.590Z,49.00
2018-09-14T10:06:26.177Z,49.10
2018-09-14T10:08:55.951Z,49.30
2018-09-14T10:11:25.857Z,49.40
2018-09-14T10:13:55.747Z,50.00
2018-09-14T10:16:24.661Z,50.20
2018-09-14T10:18:53.366Z,50.20
2018-09-14T10:21:22.185Z,49.80
2018-09-14T10:23:52.043Z,49.20
2018-09-14T10:26:20.758Z,47.80
2018-09-14T10:28:49.590Z,47.50
2018-09-14T10:31:18.276Z,46.70
2018-09-14T10:33:47.069Z,46.40
2018-09-14T10:36:15.576Z,45.50
2018-09-14T10:38:44.215Z,45.30
2018-09-14T10:41:12.793Z,45.10
2018-09-14T10:43:41.400Z,44.80
2018-09-14T10:46:10.301Z,44.90
2018-09-14T10:48:39.084Z,45.30
2018-09-14T10:51:08.235Z,44.60
2018-09-14T10:53:36.819Z,44.40
2018-09-14T10:56:05.496Z,44.60
2018-09-14T10:58:39.459Z,45.20
2018-09-14T11:01:08.209Z,45.10
2018-09-14T11:03:36.866Z,45.10
2018-09-14T11:06:05.606Z,44.90
2018-09-14T11:08:34.505Z,44.80
2018-09-14T11:11:03.277Z,44.80
2018-09-14T11:13:32.304Z,44.20
2018-09-14T11:16:01.612Z,44.60
2018-09-14T11:18:30.869Z,43.50
2018-09-14T11:20:59.740Z,43.50
2018-09-14T11:23:29.597Z,42.70
2018-09-14T11:25:58.287Z,42.40
2018-09-14T11:28:26.835Z,42.50
2018-09-14T11:30:55.615Z,42.10
2018-09-14T11:33:24.198Z,42.50
2018-09-14T11:35:53.667Z,41.90
2018-09-14T11:38:22.581Z,42.50
2018-09-14T11:40:51.177Z,42.70
2018-09-14T11:43:19.740Z,42.10
2018-09-14T11:45:48.848Z,42.70
2018-09-14T11:48:17.431Z,42.00
2018-09-14T11:50:46.095Z,42.00
2018-09-14T11:53:14.714Z,42.20
2018-09-14T11:55:43.290Z,41.40
2018-09-14T11:58:11.975Z,42.90
2018-09-14T12:00:41.104Z,41.80
2018-09-14T12:03:09.800Z,41.00
2018-09-14T12:05:38.891Z,40.80
2018-09-14T12:08:07.591Z,40.20
2018-09-14T12:10:36.160Z,40.30
2018-09-14T12:13:04.861Z,41.20
2018-09-14T12:15:33.632Z,40.60
2018-09-14T12:18:02.252Z,40.40
2018-09-14T12:20:31.308Z,40.40
2018-09-14T12:22:59.879Z,39.50
2018-09-14T12:25:28.527Z,39.10
2018-09-14T12:27:57.556Z,39.80
2018-09-14T12:30:26.264Z,38.80
2018-09-14T12:32:55.099Z,42.50
2018-09-14T12:35:23.909Z,41.60
2018-09-14T12:37:52.797Z,40.70
2018-09-14T12:40:21.436Z,39.10
2018-09-14T12:42:50.167Z,39.70
2018-09-14T12:45:18.766Z,38.90
2018-09-14T12:47:47.704Z,38.90
2018-09-14T12:50:16.288Z,39.00
2018-09-14T12:52:44.855Z,39.10
2018-09-14T12:55:13.453Z,39.20
2018-09-14T12:57:42.628Z,39.10
2018-09-14T13:00:11.470Z,39.10
2018-09-14T13:02:40.079Z,38.40
2018-09-14T13:05:08.872Z,38.70
2018-09-14T13:07:37.528Z,38.10
2018-09-14T13:10:06.803Z,38.30
2018-09-14T13:12:35.331Z,38.60
2018-09-14T13:15:04.256Z,38.40
2018-09-14T13:17:32.968Z,38.10
2018-09-14T13:20:01.764Z,38.00
2018-09-14T13:22:30.377Z,37.50
2018-09-14T13:24:59.479Z,37.80
2018-09-14T13:27:28.171Z,37.40
2018-09-14T13:29:56.822Z,37.50
2018-09-14T13:32:25.580Z,37.40
2018-09-14T13:34:54.321Z,37.00
2018-09-14T13:37:23.245Z,36.90
2018-09-14T13:39:52.132Z,37.00
2018-09-14T13:42:20.778Z,37.00
2018-09-14T13:44:50.375Z,37.00
2018-09-14T13:47:18.908Z,37.00
2018-09-14T13:49:47.526Z,36.70
2018-09-14T13:52:16.115Z,35.80
2018-09-14T13:54:44.895Z,36.90
2018-09-14T13:57:14.153Z,36.60
2018-09-14T13:59:42.778Z,36.70
2018-09-14T14:02:11.364Z,36.60
2018-09-14T14:04:40.623Z,36.80
2018-09-14T14:07:09.319Z,36.50
2018-09-14T14:09:37.953Z,36.50
2018-09-14T14:12:06.562Z,36.40
2018-09-14T14:14:35.241Z,36.40
2018-09-14T14:17:04.031Z,36.60
2018-09-14T14:19:32.666Z,36.50
2018-09-14T14:22:02.184Z,36.40
2018-09-14T14:24:30.810Z,36.30
2018-09-14T14:26:59.400Z,35.30
2018-09-14T14:29:28.733Z,35.30
2018-09-14T14:31:57.453Z,35.30
2018-09-14T14:34:26.265Z,35.70
2018-09-14T14:36:55.928Z,35.90
2018-09-14T14:39:24.620Z,36.20
2018-09-14T14:41:53.293Z,36.00
2018-09-14T14:44:21.894Z,36.20
2018-09-14T14:46:50.462Z,36.30
2018-09-14T14:49:19.198Z,36.50
2018-09-14T14:51:47.683Z,36.00
2018-09-14T14:54:16.265Z,36.30
2018-09-14T14:56:44.821Z,36.00
2018-09-14T14:59:13.513Z,36.00
2018-09-14T15:01:42.304Z,36.70
2018-09-14T15:04:10.933Z,35.50
2018-09-14T15:06:40.640Z,35.50
2018-09-14T15:09:10.356Z,35.00
2018-09-14T15:11:39.359Z,35.30
2018-09-14T15:14:07.942Z,35.40
2018-09-14T15:16:36.576Z,35.00
2018-09-14T15:19:05.780Z,35.30
2018-09-14T15:21:35.064Z,35.30
2018-09-14T15:24:05.196Z,35.30
2018-09-14T15:26:33.834Z,35.10
2018-09-14T15:29:02.491Z,35.00
2018-09-14T15:31:31.262Z,34.90
2018-09-14T15:33:59.928Z,34.80
2018-09-14T15:36:28.700Z,34.80
2018-09-14T15:38:57.560Z,34.80
2018-09-14T15:41:26.170Z,34.70
2018-09-14T15:43:54.887Z,35.00
2018-09-14T15:46:23.628Z,35.40
2018-09-14T15:48:52.247Z,35.20
2018-09-14T15:51:21.096Z,35.10
2018-09-14T15:53:49.748Z,34.90
2018-09-14T15:56:18.428Z,35.30
2018-09-14T15:58:47.236Z,35.00
2018-09-14T16:01:15.782Z,35.10
2018-09-14T16:03:44.348Z,34.80
2018-09-14T16:06:13.642Z,34.80
2018-09-14T16:08:42.511Z,34.80
2018-09-14T16:11:11.275Z,34.70
2018-09-14T16:13:40.015Z,34.00
2018-09-14T16:16:08.548Z,33.90
2018-09-14T16:18:37.132Z,33.90
2018-09-14T16:21:05.791Z,34.00
2018-09-14T16:23:34.543Z,34.10
2018-09-14T16:26:03.054Z,34.10
2018-09-14T16:28:31.649Z,33.50
2018-09-14T16:31:00.403Z,32.90
2018-09-14T16:33:29.016Z,32.50
2018-09-14T16:35:57.680Z,32.10
2018-09-14T16:38:26.467Z,31.70
2018-09-14T16:40:55.072Z,31.80
2018-09-14T16:43:24.373Z,31.60
2018-09-14T16:45:53.132Z,31.30
2018-09-14T16:48:21.742Z,31.60
2018-09-14T16:50:50.337Z,31.50
2018-09-14T16:53:19.547Z,31.10
2018-09-14T16:55:48.281Z,31.40
2018-09-14T16:58:16.938Z,30.70
2018-09-14T17:00:45.575Z,30.40
2018-09-14T17:03:14.313Z,30.60
2018-09-14T17:05:43.021Z,30.80
2018-09-14T17:08:11.821Z,31.00
2018-09-14T17:10:40.571Z,30.80
2018-09-14T17:13:09.164Z,31.00
2018-09-14T17:15:37.767Z,30.90
2018-09-14T17:18:06.437Z,31.10
2018-09-14T17:20:35.206Z,31.10
2018-09-14T17:23:03.836Z,31.10
2018-09-14T17:25:32.552Z,31.10
2018-09-14T17:28:01.219Z,31.10
2018-09-14T17:30:29.895Z,31.30
2018-09-14T17:33:00.115Z,31.30
2018-09-14T17:35:29.034Z,31.30
2018-09-14T17:37:59.545Z,31.50
2018-09-14T17:40:28.276Z,31.60
2018-09-14T17:42:56.854Z,31.70
2018-09-14T17:45:25.673Z,31.70
2018-09-14T17:47:54.303Z,32.00
2018-09-14T17:50:22.993Z,31.70
2018-09-14T17:52:51.682Z,31.90
2018-09-14T17:55:20.887Z,32.10
2018-09-14T17:57:50.112Z,32.20
2018-09-14T18:00:19.396Z,32.30
2018-09-14T18:02:48.081Z,32.50
2018-09-14T18:05:16.757Z,32.80
2018-09-14T18:07:45.870Z,32.90
2018-09-14T18:10:14.728Z,33.00
2018-09-14T18:12:43.408Z,33.10
2018-09-14T18:15:12.140Z,33.00
2018-09-14T18:17:40.716Z,33.70
2018-09-14T18:20:09.327Z,34.10
2018-09-14T18:22:38.024Z,34.00
2018-09-14T18:25:06.691Z,34.00
2018-09-14T18:27:36.435Z,34.40
2018-09-14T18:30:05.525Z,34.50
2018-09-14T18:32:34.192Z,34.30
2018-09-14T18:35:02.915Z,34.50
2018-09-14T18:37:31.615Z,34.80
2018-09-14T18:40:00.362Z,35.00
2018-09-14T18:42:29.056Z,35.00
2018-09-14T18:44:57.702Z,35.10
2018-09-14T18:47:26.559Z,35.30
2018-09-14T18:49:55.201Z,35.30
2018-09-14T18:52:24.053Z,35.40
2018-09-14T18:54:53.032Z,35.70
2018-09-14T18:57:21.629Z,35.90
2018-09-14T18:59:50.177Z,36.10
2018-09-14T19:02:18.782Z,35.90
2018-09-14T19:04:47.428Z,36.20
2018-09-14T19:07:16.773Z,36.50
2018-09-14T19:09:45.357Z,36.10
2018-09-14T19:12:14.037Z,36.30
2018-09-14T19:14:42.870Z,37.20
2018-09-14T19:17:11.547Z,37.50
2018-09-14T19:19:40.114Z,37.70
2018-09-14T19:22:08.883Z,37.60
2018-09-14T19:24:37.510Z,37.60
2018-09-14T19:27:06.089Z,37.40
2018-09-14T19:29:34.733Z,37.40
2018-09-14T19:32:03.472Z,37.30
2018-09-14T19:34:32.210Z,37.80
2018-09-14T19:37:00.782Z,37.50
2018-09-14T19:39:29.439Z,37.50
2018-09-14T19:41:58.053Z,38.00
2018-09-14T19:44:26.969Z,37.90
2018-09-14T19:46:55.609Z,37.90
2018-09-14T19:49:24.259Z,37.60
2018-09-14T19:51:52.945Z,37.70
2018-09-14T19:54:21.610Z,37.70
2018-09-14T19:56:50.392Z,37.90
2018-09-14T19:59:19.139Z,38.70
2018-09-14T20:01:47.907Z,38.40
2018-09-14T20:04:16.640Z,38.70
2018-09-14T20:06:45.256Z,38.70
2018-09-14T20:09:15.119Z,38.50
2018-09-14T20:11:44.482Z,38.50
2018-09-14T20:14:13.377Z,38.60
2018-09-14T20:16:41.962Z,38.70
2018-09-14T20:19:10.908Z,39.10
2018-09-14T20:21:40.076Z,39.50
2018-09-14T20:24:08.776Z,39.70
2018-09-14T20:26:37.500Z,40.00
2018-09-14T20:29:06.112Z,40.20
2018-09-14T20:31:35.530Z,40.50
2018-09-14T20:34:04.186Z,39.40
2018-09-14T20:36:32.977Z,39.20
2018-09-14T20:39:02.445Z,39.00
2018-09-14T20:41:31.020Z,38.70
2018-09-14T20:43:59.903Z,39.20
2018-09-14T20:46:28.581Z,39.60
2018-09-14T20:48:57.193Z,40.10
2018-09-14T20:51:25.883Z,39.50
2018-09-14T20:53:54.807Z,39.90
2018-09-14T20:56:23.662Z,39.40
2018-09-14T20:58:52.254Z,39.80
2018-09-14T21:01:22.164Z,39.90
2018-09-14T21:03:50.803Z,39.90
2018-09-14T21:06:19.617Z,40.10
2018-09-14T21:08:49.164Z,40.00
2018-09-14T21:11:17.915Z,40.30
2018-09-14T21:13:46.595Z,40.60
2018-09-14T21:16:15.189Z,40.60
2018-09-14T21:18:43.857Z,40.40
2018-09-14T21:21:14.488Z,40.40
2018-09-14T21:23:44.509Z,40.40
2018-09-14T21:26:13.042Z,40.40
2018-09-14T21:28:41.703Z,40.40
2018-09-14T21:31:10.397Z,40.50
2018-09-14T21:33:38.966Z,40.50
2018-09-14T21:36:07.725Z,40.40
2018-09-14T21:38:36.392Z,40.70
2018-09-14T21:41:05.166Z,40.60
2018-09-14T21:43:34.032Z,40.90
2018-09-14T21:46:02.541Z,41.30
2018-09-14T21:48:31.175Z,41.30
2018-09-14T21:50:59.885Z,41.20
2018-09-14T21:53:28.458Z,41.30
2018-09-14T21:55:57.140Z,41.50
2018-09-14T21:58:25.852Z,41.30
2018-09-14T22:00:59.733Z,41.50
2018-09-14T22:03:28.283Z,41.40
2018-09-14T22:05:56.863Z,41.40
2018-09-14T22:08:25.699Z,40.90
2018-09-14T22:10:54.574Z,41.30
2018-09-14T22:13:23.575Z,41.50
2018-09-14T22:15:52.532Z,41.50
2018-09-14T22:18:21.094Z,41.40
2018-09-14T22:20:49.752Z,41.30
2018-09-14T22:23:18.420Z,41.50
2018-09-14T22:25:47.180Z,41.70
2018-09-14T22:28:16.108Z,41.90
2018-09-14T22:30:44.712Z,41.90
2018-09-14T22:33:13.466Z,41.80
2018-09-14T22:35:42.045Z,42.10
2018-09-14T22:38:10.695Z,42.20
2018-09-14T22:40:39.860Z,41.90
2018-09-14T22:43:08.595Z,42.10
2018-09-14T22:45:37.307Z,41.80
2018-09-14T22:48:05.932Z,41.80
2018-09-14T22:50:34.478Z,41.80
2018-09-14T22:53:03.068Z,41.50
2018-09-14T22:55:31.794Z,41.70
2018-09-14T22:58:00.643Z,41.50
2018-09-14T23:00:34.951Z,41.50
2018-09-14T23:03:03.587Z,41.60
2018-09-14T23:05:32.413Z,41.60
2018-09-14T23:08:00.975Z,41.50
2018-09-14T23:10:30.054Z,41.50
2018-09-14T23:12:59.429Z,41.80
2018-09-14T23:15:28.048Z,41.90
2018-09-14T23:17:56.748Z,42.00
2018-09-14T23:20:26.293Z,42.40
2018-09-14T23:22:55.234Z,42.70
2018-09-14T23:25:23.958Z,43.30
2018-09-14T23:27:52.603Z,42.80
2018-09-14T23:30:21.182Z,42.80
2018-09-14T23:32:49.702Z,43.00
2018-09-14T23:35:18.304Z,43.20
2018-09-14T23:37:47.607Z,43.30
2018-09-14T23:40:16.300Z,43.40
2018-09-14T23:42:44.839Z,43.50
2018-09-14T23:45:13.446Z,43.40
2018-09-14T23:47:42.660Z,43.40
2018-09-14T23:50:11.408Z,43.50
2018-09-14T23:52:40.007Z,43.90
2018-09-14T23:55:08.586Z,44.10
2018-09-14T23:57:37.223Z,44.10
